sensor_id;sensor_type;location;lat;lon;timestamp;P1;durP1;ratioP1;P2;durP2;ratioP2
5662;SDS011;2854;42.692;23.364;2023-03-24T00:00:40;8.53;;;5.00;;
5662;SDS011;2854;42.692;23.364;2023-03-24T00:03:06;8.03;;;5.57;;
5662;SDS011;2854;42.692;23.364;2023-03-24T00:05:31;7.57;;;4.13;;
5662;SDS011;2854;42.692;23.364;2023-03-24T00:07:57;9.03;;;5.30;;
5662;SDS011;2854;42.692;23.364;2023-03-24T00:10:24;7.27;;;5.80;;
5662;SDS011;2854;42.692;23.364;2023-03-24T00:12:49;7.07;;;5.10;;
5662;SDS011;2854;42.692;23.364;2023-03-24T00:15:16;9.50;;;5.10;;
5662;SDS011;2854;42.692;23.364;2023-03-24T00:17:43;6.87;;;5.10;;
5662;SDS011;2854;42.692;23.364;2023-03-24T00:20:10;7.13;;;4.33;;
5662;SDS011;2854;42.692;23.364;2023-03-24T00:22:40;6.30;;;5.33;;
5662;SDS011;2854;42.692;23.364;2023-03-24T00:25:06;8.67;;;5.03;;
5662;SDS011;2854;42.692;23.364;2023-03-24T00:27:32;9.80;;;6.00;;
5662;SDS011;2854;42.692;23.364;2023-03-24T00:30:00;7.30;;;5.23;;
5662;SDS011;2854;42.692;23.364;2023-03-24T00:32:27;9.30;;;6.90;;
5662;SDS011;2854;42.692;23.364;2023-03-24T00:34:54;10.87;;;5.87;;
5662;SDS011;2854;42.692;23.364;2023-03-24T00:37:19;10.30;;;6.03;;
5662;SDS011;2854;42.692;23.364;2023-03-24T00:39:44;10.70;;;6.90;;
5662;SDS011;2854;42.692;23.364;2023-03-24T00:42:10;12.00;;;6.43;;
5662;SDS011;2854;42.692;23.364;2023-03-24T00:44:35;11.30;;;6.03;;
5662;SDS011;2854;42.692;23.364;2023-03-24T00:47:02;9.97;;;6.80;;
5662;SDS011;2854;42.692;23.364;2023-03-24T00:49:28;8.47;;;6.13;;
5662;SDS011;2854;42.692;23.364;2023-03-24T00:52:13;7.33;;;6.50;;
5662;SDS011;2854;42.692;23.364;2023-03-24T00:54:39;7.13;;;5.27;;
5662;SDS011;2854;42.692;23.364;2023-03-24T00:57:05;11.20;;;6.57;;
5662;SDS011;2854;42.692;23.364;2023-03-24T00:59:30;11.33;;;5.20;;
5662;SDS011;2854;42.692;23.364;2023-03-24T01:01:56;11.60;;;5.20;;
5662;SDS011;2854;42.692;23.364;2023-03-24T01:04:22;13.33;;;6.40;;
5662;SDS011;2854;42.692;23.364;2023-03-24T01:06:50;8.53;;;6.23;;
5662;SDS011;2854;42.692;23.364;2023-03-24T01:09:16;8.70;;;6.00;;
5662;SDS011;2854;42.692;23.364;2023-03-24T01:11:42;14.93;;;6.27;;
5662;SDS011;2854;42.692;23.364;2023-03-24T01:14:08;13.83;;;7.27;;
5662;SDS011;2854;42.692;23.364;2023-03-24T01:16:34;10.93;;;6.90;;
5662;SDS011;2854;42.692;23.364;2023-03-24T01:18:59;13.13;;;7.83;;
5662;SDS011;2854;42.692;23.364;2023-03-24T01:21:25;11.53;;;7.13;;
5662;SDS011;2854;42.692;23.364;2023-03-24T01:23:50;14.80;;;7.60;;
5662;SDS011;2854;42.692;23.364;2023-03-24T01:26:16;11.80;;;8.40;;
5662;SDS011;2854;42.692;23.364;2023-03-24T01:28:41;12.60;;;7.20;;
5662;SDS011;2854;42.692;23.364;2023-03-24T01:31:08;30.13;;;9.20;;
5662;SDS011;2854;42.692;23.364;2023-03-24T01:33:34;12.20;;;7.90;;
5662;SDS011;2854;42.692;23.364;2023-03-24T01:36:00;14.77;;;7.97;;
5662;SDS011;2854;42.692;23.364;2023-03-24T01:38:25;13.90;;;7.93;;
5662;SDS011;2854;42.692;23.364;2023-03-24T01:40:50;19.90;;;8.43;;
5662;SDS011;2854;42.692;23.364;2023-03-24T01:43:20;14.47;;;8.53;;
5662;SDS011;2854;42.692;23.364;2023-03-24T01:46:05;19.13;;;8.77;;
5662;SDS011;2854;42.692;23.364;2023-03-24T01:48:39;16.23;;;8.87;;
5662;SDS011;2854;42.692;23.364;2023-03-24T01:53:31;13.00;;;8.20;;
5662;SDS011;2854;42.692;23.364;2023-03-24T01:55:57;14.47;;;8.70;;
5662;SDS011;2854;42.692;23.364;2023-03-24T01:58:24;15.00;;;8.07;;
5662;SDS011;2854;42.692;23.364;2023-03-24T02:00:52;13.07;;;7.30;;
5662;SDS011;2854;42.692;23.364;2023-03-24T02:03:19;20.90;;;9.70;;
5662;SDS011;2854;42.692;23.364;2023-03-24T02:05:45;15.80;;;8.97;;
5662;SDS011;2854;42.692;23.364;2023-03-24T02:08:14;12.70;;;7.37;;
5662;SDS011;2854;42.692;23.364;2023-03-24T02:10:40;16.07;;;9.17;;
5662;SDS011;2854;42.692;23.364;2023-03-24T02:13:06;12.50;;;8.70;;
5662;SDS011;2854;42.692;23.364;2023-03-24T02:15:32;16.87;;;9.40;;
5662;SDS011;2854;42.692;23.364;2023-03-24T02:20:30;16.50;;;9.13;;
5662;SDS011;2854;42.692;23.364;2023-03-24T02:30:36;11.77;;;9.00;;
5662;SDS011;2854;42.692;23.364;2023-03-24T02:33:14;16.60;;;9.37;;
5662;SDS011;2854;42.692;23.364;2023-03-24T02:50:50;16.80;;;9.17;;
5662;SDS011;2854;42.692;23.364;2023-03-24T02:58:39;16.00;;;7.33;;
5662;SDS011;2854;42.692;23.364;2023-03-24T03:01:10;13.23;;;9.20;;
5662;SDS011;2854;42.692;23.364;2023-03-24T03:03:41;14.30;;;8.40;;
5662;SDS011;2854;42.692;23.364;2023-03-24T03:06:14;20.33;;;9.33;;
5662;SDS011;2854;42.692;23.364;2023-03-24T03:08:41;13.43;;;7.83;;
5662;SDS011;2854;42.692;23.364;2023-03-24T03:11:11;19.77;;;9.63;;
5662;SDS011;2854;42.692;23.364;2023-03-24T03:13:38;20.97;;;8.13;;
5662;SDS011;2854;42.692;23.364;2023-03-24T03:16:05;18.30;;;9.27;;
5662;SDS011;2854;42.692;23.364;2023-03-24T03:18:32;13.90;;;8.07;;
5662;SDS011;2854;42.692;23.364;2023-03-24T03:21:04;19.33;;;8.70;;
5662;SDS011;2854;42.692;23.364;2023-03-24T03:23:34;18.30;;;8.23;;
5662;SDS011;2854;42.692;23.364;2023-03-24T03:26:00;16.20;;;8.17;;
5662;SDS011;2854;42.692;23.364;2023-03-24T03:28:28;14.53;;;8.40;;
5662;SDS011;2854;42.692;23.364;2023-03-24T03:30:56;18.50;;;9.10;;
5662;SDS011;2854;42.692;23.364;2023-03-24T03:33:23;22.43;;;9.90;;
5662;SDS011;2854;42.692;23.364;2023-03-24T03:38:17;14.20;;;10.57;;
5662;SDS011;2854;42.692;23.364;2023-03-24T03:40:50;21.93;;;10.93;;
5662;SDS011;2854;42.692;23.364;2023-03-24T03:43:16;19.20;;;10.90;;
5662;SDS011;2854;42.692;23.364;2023-03-24T03:45:42;23.80;;;12.57;;
5662;SDS011;2854;42.692;23.364;2023-03-24T03:48:07;21.87;;;11.70;;
5662;SDS011;2854;42.692;23.364;2023-03-24T03:50:32;21.07;;;12.97;;
5662;SDS011;2854;42.692;23.364;2023-03-24T03:52:58;17.10;;;9.37;;
5662;SDS011;2854;42.692;23.364;2023-03-24T03:55:25;15.37;;;10.60;;
5662;SDS011;2854;42.692;23.364;2023-03-24T03:57:50;15.53;;;9.40;;
5662;SDS011;2854;42.692;23.364;2023-03-24T04:00:16;12.73;;;9.10;;
5662;SDS011;2854;42.692;23.364;2023-03-24T04:08:03;16.40;;;9.03;;
5662;SDS011;2854;42.692;23.364;2023-03-24T04:10:34;17.30;;;9.20;;
5662;SDS011;2854;42.692;23.364;2023-03-24T04:15:44;18.27;;;9.87;;
5662;SDS011;2854;42.692;23.364;2023-03-24T04:28:58;17.07;;;9.33;;
5662;SDS011;2854;42.692;23.364;2023-03-24T04:33:59;22.23;;;9.93;;
5662;SDS011;2854;42.692;23.364;2023-03-24T04:36:34;18.30;;;8.97;;
5662;SDS011;2854;42.692;23.364;2023-03-24T04:39:08;22.73;;;8.77;;
5662;SDS011;2854;42.692;23.364;2023-03-24T04:41:34;17.33;;;9.80;;
5662;SDS011;2854;42.692;23.364;2023-03-24T04:44:01;20.20;;;10.83;;
5662;SDS011;2854;42.692;23.364;2023-03-24T04:46:27;29.17;;;12.47;;
5662;SDS011;2854;42.692;23.364;2023-03-24T04:48:52;25.93;;;13.10;;
5662;SDS011;2854;42.692;23.364;2023-03-24T04:51:18;34.30;;;11.90;;
5662;SDS011;2854;42.692;23.364;2023-03-24T04:53:44;19.63;;;11.57;;
5662;SDS011;2854;42.692;23.364;2023-03-24T04:56:17;21.70;;;12.23;;
5662;SDS011;2854;42.692;23.364;2023-03-24T04:58:49;26.83;;;10.83;;
5662;SDS011;2854;42.692;23.364;2023-03-24T05:01:15;14.67;;;9.73;;
5662;SDS011;2854;42.692;23.364;2023-03-24T05:03:41;17.37;;;9.40;;
5662;SDS011;2854;42.692;23.364;2023-03-24T05:06:06;12.70;;;9.20;;
5662;SDS011;2854;42.692;23.364;2023-03-24T05:08:31;10.47;;;7.57;;
5662;SDS011;2854;42.692;23.364;2023-03-24T05:10:57;11.70;;;7.90;;
5662;SDS011;2854;42.692;23.364;2023-03-24T05:13:22;13.23;;;7.20;;
5662;SDS011;2854;42.692;23.364;2023-03-24T05:15:47;22.10;;;12.80;;
5662;SDS011;2854;42.692;23.364;2023-03-24T05:18:13;25.73;;;12.03;;
5662;SDS011;2854;42.692;23.364;2023-03-24T05:20:38;19.50;;;13.30;;
5662;SDS011;2854;42.692;23.364;2023-03-24T05:23:03;22.00;;;12.20;;
5662;SDS011;2854;42.692;23.364;2023-03-24T05:25:29;21.27;;;9.97;;
5662;SDS011;2854;42.692;23.364;2023-03-24T05:27:54;17.63;;;9.13;;
5662;SDS011;2854;42.692;23.364;2023-03-24T05:30:19;21.97;;;9.67;;
5662;SDS011;2854;42.692;23.364;2023-03-24T05:32:45;14.20;;;7.00;;
5662;SDS011;2854;42.692;23.364;2023-03-24T05:35:10;18.90;;;6.50;;
5662;SDS011;2854;42.692;23.364;2023-03-24T05:37:35;10.90;;;6.63;;
5662;SDS011;2854;42.692;23.364;2023-03-24T05:40:00;7.77;;;5.60;;
5662;SDS011;2854;42.692;23.364;2023-03-24T05:42:26;7.70;;;6.00;;
5662;SDS011;2854;42.692;23.364;2023-03-24T05:44:51;10.53;;;6.90;;
5662;SDS011;2854;42.692;23.364;2023-03-24T05:47:16;8.63;;;5.43;;
5662;SDS011;2854;42.692;23.364;2023-03-24T05:49:46;7.30;;;5.80;;
5662;SDS011;2854;42.692;23.364;2023-03-24T05:52:12;8.07;;;5.63;;
5662;SDS011;2854;42.692;23.364;2023-03-24T05:54:40;7.30;;;5.57;;
5662;SDS011;2854;42.692;23.364;2023-03-24T05:57:05;8.37;;;5.63;;
5662;SDS011;2854;42.692;23.364;2023-03-24T05:59:33;11.43;;;5.70;;
5662;SDS011;2854;42.692;23.364;2023-03-24T06:01:59;11.50;;;5.50;;
5662;SDS011;2854;42.692;23.364;2023-03-24T06:04:25;20.73;;;10.43;;
5662;SDS011;2854;42.692;23.364;2023-03-24T06:06:54;17.73;;;10.13;;
5662;SDS011;2854;42.692;23.364;2023-03-24T06:09:23;15.83;;;8.67;;
5662;SDS011;2854;42.692;23.364;2023-03-24T06:11:48;16.50;;;8.33;;
5662;SDS011;2854;42.692;23.364;2023-03-24T06:14:13;18.13;;;7.67;;
5662;SDS011;2854;42.692;23.364;2023-03-24T06:16:39;14.40;;;7.90;;
5662;SDS011;2854;42.692;23.364;2023-03-24T06:19:04;16.00;;;7.70;;
5662;SDS011;2854;42.692;23.364;2023-03-24T06:21:31;13.20;;;7.00;;
5662;SDS011;2854;42.692;23.364;2023-03-24T06:23:56;11.30;;;7.00;;
5662;SDS011;2854;42.692;23.364;2023-03-24T06:26:22;12.40;;;7.77;;
5662;SDS011;2854;42.692;23.364;2023-03-24T06:28:48;16.40;;;8.40;;
5662;SDS011;2854;42.692;23.364;2023-03-24T06:31:16;17.40;;;7.13;;
5662;SDS011;2854;42.692;23.364;2023-03-24T06:33:44;11.07;;;6.90;;
5662;SDS011;2854;42.692;23.364;2023-03-24T06:36:09;12.37;;;8.53;;
5662;SDS011;2854;42.692;23.364;2023-03-24T06:38:36;16.40;;;7.83;;
5662;SDS011;2854;42.692;23.364;2023-03-24T06:41:02;13.27;;;7.60;;
5662;SDS011;2854;42.692;23.364;2023-03-24T06:43:27;12.83;;;7.13;;
5662;SDS011;2854;42.692;23.364;2023-03-24T06:45:54;9.40;;;7.10;;
5662;SDS011;2854;42.692;23.364;2023-03-24T06:48:19;12.57;;;8.60;;
5662;SDS011;2854;42.692;23.364;2023-03-24T06:50:44;11.53;;;7.00;;
5662;SDS011;2854;42.692;23.364;2023-03-24T06:53:10;14.80;;;8.50;;
5662;SDS011;2854;42.692;23.364;2023-03-24T06:55:35;18.93;;;9.03;;
5662;SDS011;2854;42.692;23.364;2023-03-24T06:58:00;18.70;;;9.67;;
5662;SDS011;2854;42.692;23.364;2023-03-24T07:00:26;14.23;;;8.57;;
5662;SDS011;2854;42.692;23.364;2023-03-24T07:02:53;25.00;;;9.33;;
5662;SDS011;2854;42.692;23.364;2023-03-24T07:05:18;11.90;;;7.77;;
5662;SDS011;2854;42.692;23.364;2023-03-24T07:07:43;14.13;;;7.60;;
5662;SDS011;2854;42.692;23.364;2023-03-24T07:10:09;27.03;;;8.93;;
5662;SDS011;2854;42.692;23.364;2023-03-24T07:12:34;15.90;;;9.17;;
5662;SDS011;2854;42.692;23.364;2023-03-24T07:15:00;25.53;;;8.77;;
5662;SDS011;2854;42.692;23.364;2023-03-24T07:17:28;14.97;;;8.83;;
5662;SDS011;2854;42.692;23.364;2023-03-24T07:19:53;10.77;;;7.70;;
5662;SDS011;2854;42.692;23.364;2023-03-24T07:22:18;11.37;;;7.97;;
5662;SDS011;2854;42.692;23.364;2023-03-24T07:24:43;11.73;;;8.00;;
5662;SDS011;2854;42.692;23.364;2023-03-24T07:27:09;13.60;;;9.60;;
5662;SDS011;2854;42.692;23.364;2023-03-24T07:29:34;19.03;;;7.70;;
5662;SDS011;2854;42.692;23.364;2023-03-24T07:32:00;15.60;;;9.90;;
5662;SDS011;2854;42.692;23.364;2023-03-24T07:34:26;16.97;;;10.33;;
5662;SDS011;2854;42.692;23.364;2023-03-24T07:36:51;14.07;;;8.70;;
5662;SDS011;2854;42.692;23.364;2023-03-24T07:39:17;11.40;;;8.33;;
5662;SDS011;2854;42.692;23.364;2023-03-24T07:41:42;13.33;;;8.60;;
5662;SDS011;2854;42.692;23.364;2023-03-24T07:44:07;18.30;;;9.67;;
5662;SDS011;2854;42.692;23.364;2023-03-24T07:46:33;13.27;;;8.37;;
5662;SDS011;2854;42.692;23.364;2023-03-24T07:48:58;17.77;;;10.00;;
5662;SDS011;2854;42.692;23.364;2023-03-24T07:51:23;11.07;;;7.97;;
5662;SDS011;2854;42.692;23.364;2023-03-24T07:53:49;13.33;;;8.10;;
5662;SDS011;2854;42.692;23.364;2023-03-24T07:56:14;19.60;;;11.23;;
5662;SDS011;2854;42.692;23.364;2023-03-24T07:58:40;10.70;;;8.33;;
5662;SDS011;2854;42.692;23.364;2023-03-24T08:01:08;16.77;;;8.93;;
5662;SDS011;2854;42.692;23.364;2023-03-24T08:03:36;18.40;;;10.10;;
5662;SDS011;2854;42.692;23.364;2023-03-24T08:06:05;19.10;;;9.57;;
5662;SDS011;2854;42.692;23.364;2023-03-24T08:08:31;18.43;;;10.90;;
5662;SDS011;2854;42.692;23.364;2023-03-24T08:10:56;11.77;;;8.03;;
5662;SDS011;2854;42.692;23.364;2023-03-24T08:13:21;14.27;;;8.77;;
5662;SDS011;2854;42.692;23.364;2023-03-24T08:15:47;21.20;;;11.40;;
5662;SDS011;2854;42.692;23.364;2023-03-24T08:18:12;17.57;;;8.23;;
5662;SDS011;2854;42.692;23.364;2023-03-24T08:20:37;15.63;;;9.83;;
5662;SDS011;2854;42.692;23.364;2023-03-24T08:23:03;16.97;;;9.43;;
5662;SDS011;2854;42.692;23.364;2023-03-24T08:25:28;17.47;;;9.60;;
5662;SDS011;2854;42.692;23.364;2023-03-24T08:27:54;17.63;;;8.70;;
5662;SDS011;2854;42.692;23.364;2023-03-24T08:30:20;14.13;;;8.33;;
5662;SDS011;2854;42.692;23.364;2023-03-24T08:32:47;15.43;;;8.57;;
5662;SDS011;2854;42.692;23.364;2023-03-24T08:35:13;25.40;;;11.07;;
5662;SDS011;2854;42.692;23.364;2023-03-24T08:37:40;17.90;;;9.70;;
5662;SDS011;2854;42.692;23.364;2023-03-24T08:40:07;12.37;;;8.53;;
5662;SDS011;2854;42.692;23.364;2023-03-24T08:42:37;16.70;;;9.10;;
5662;SDS011;2854;42.692;23.364;2023-03-24T08:45:02;18.77;;;10.07;;
5662;SDS011;2854;42.692;23.364;2023-03-24T08:47:28;16.63;;;9.27;;
5662;SDS011;2854;42.692;23.364;2023-03-24T08:49:54;19.33;;;10.27;;
5662;SDS011;2854;42.692;23.364;2023-03-24T08:52:21;18.93;;;9.13;;
5662;SDS011;2854;42.692;23.364;2023-03-24T08:54:46;14.77;;;9.10;;
5662;SDS011;2854;42.692;23.364;2023-03-24T08:57:12;16.70;;;8.90;;
5662;SDS011;2854;42.692;23.364;2023-03-24T08:59:37;15.53;;;8.17;;
5662;SDS011;2854;42.692;23.364;2023-03-24T09:02:02;17.67;;;9.77;;
5662;SDS011;2854;42.692;23.364;2023-03-24T09:04:27;13.83;;;8.73;;
5662;SDS011;2854;42.692;23.364;2023-03-24T09:06:53;19.93;;;10.17;;
5662;SDS011;2854;42.692;23.364;2023-03-24T09:09:24;12.80;;;8.57;;
5662;SDS011;2854;42.692;23.364;2023-03-24T09:11:49;12.83;;;8.40;;
5662;SDS011;2854;42.692;23.364;2023-03-24T09:14:14;22.40;;;9.03;;
5662;SDS011;2854;42.692;23.364;2023-03-24T09:16:39;18.30;;;10.37;;
5662;SDS011;2854;42.692;23.364;2023-03-24T09:19:05;12.07;;;8.30;;
5662;SDS011;2854;42.692;23.364;2023-03-24T09:21:31;14.43;;;9.30;;
5662;SDS011;2854;42.692;23.364;2023-03-24T09:23:56;13.60;;;9.50;;
5662;SDS011;2854;42.692;23.364;2023-03-24T09:26:21;13.13;;;8.93;;
5662;SDS011;2854;42.692;23.364;2023-03-24T09:28:47;18.80;;;9.47;;
5662;SDS011;2854;42.692;23.364;2023-03-24T09:31:12;16.10;;;9.50;;
5662;SDS011;2854;42.692;23.364;2023-03-24T09:33:37;15.40;;;8.33;;
5662;SDS011;2854;42.692;23.364;2023-03-24T09:36:03;14.23;;;9.33;;
5662;SDS011;2854;42.692;23.364;2023-03-24T09:38:28;13.17;;;8.60;;
5662;SDS011;2854;42.692;23.364;2023-03-24T09:40:56;16.07;;;10.13;;
5662;SDS011;2854;42.692;23.364;2023-03-24T09:46:08;13.70;;;7.87;;
5662;SDS011;2854;42.692;23.364;2023-03-24T09:51:11;12.53;;;8.73;;
5662;SDS011;2854;42.692;23.364;2023-03-24T09:56:16;15.83;;;8.23;;
5662;SDS011;2854;42.692;23.364;2023-03-24T09:58:42;10.47;;;7.80;;
5662;SDS011;2854;42.692;23.364;2023-03-24T10:01:11;17.67;;;8.30;;
5662;SDS011;2854;42.692;23.364;2023-03-24T10:03:37;12.50;;;8.17;;
5662;SDS011;2854;42.692;23.364;2023-03-24T10:06:10;9.80;;;7.03;;
5662;SDS011;2854;42.692;23.364;2023-03-24T10:08:42;10.73;;;8.00;;
5662;SDS011;2854;42.692;23.364;2023-03-24T10:16:22;7.97;;;6.70;;
5662;SDS011;2854;42.692;23.364;2023-03-24T10:18:51;12.23;;;7.47;;
5662;SDS011;2854;42.692;23.364;2023-03-24T10:21:23;10.87;;;6.50;;
5662;SDS011;2854;42.692;23.364;2023-03-24T10:29:12;10.80;;;6.83;;
5662;SDS011;2854;42.692;23.364;2023-03-24T10:31:39;10.33;;;6.33;;
5662;SDS011;2854;42.692;23.364;2023-03-24T10:34:08;12.27;;;7.10;;
5662;SDS011;2854;42.692;23.364;2023-03-24T10:36:34;11.37;;;6.87;;
5662;SDS011;2854;42.692;23.364;2023-03-24T10:38:59;11.67;;;6.13;;
5662;SDS011;2854;42.692;23.364;2023-03-24T10:41:26;18.33;;;6.83;;
5662;SDS011;2854;42.692;23.364;2023-03-24T10:43:53;7.70;;;6.87;;
5662;SDS011;2854;42.692;23.364;2023-03-24T10:46:21;9.33;;;6.33;;
5662;SDS011;2854;42.692;23.364;2023-03-24T10:48:48;8.57;;;6.37;;
5662;SDS011;2854;42.692;23.364;2023-03-24T10:53:45;12.23;;;6.13;;
5662;SDS011;2854;42.692;23.364;2023-03-24T10:56:16;7.80;;;5.10;;
5662;SDS011;2854;42.692;23.364;2023-03-24T10:58:42;9.60;;;6.20;;
5662;SDS011;2854;42.692;23.364;2023-03-24T11:01:29;13.73;;;5.50;;
5662;SDS011;2854;42.692;23.364;2023-03-24T11:04:02;7.20;;;5.50;;
5662;SDS011;2854;42.692;23.364;2023-03-24T11:06:29;7.17;;;5.10;;
5662;SDS011;2854;42.692;23.364;2023-03-24T11:11:53;4.43;;;4.07;;
5662;SDS011;2854;42.692;23.364;2023-03-24T11:14:22;6.53;;;4.93;;
5662;SDS011;2854;42.692;23.364;2023-03-24T11:16:49;5.30;;;4.30;;
5662;SDS011;2854;42.692;23.364;2023-03-24T11:19:22;5.03;;;4.53;;
5662;SDS011;2854;42.692;23.364;2023-03-24T11:21:51;6.43;;;5.60;;
5662;SDS011;2854;42.692;23.364;2023-03-24T11:24:17;6.60;;;4.30;;
5662;SDS011;2854;42.692;23.364;2023-03-24T11:26:44;8.47;;;5.10;;
5662;SDS011;2854;42.692;23.364;2023-03-24T11:29:14;10.90;;;5.30;;
5662;SDS011;2854;42.692;23.364;2023-03-24T11:31:39;7.50;;;4.90;;
5662;SDS011;2854;42.692;23.364;2023-03-24T11:34:06;9.97;;;4.90;;
5662;SDS011;2854;42.692;23.364;2023-03-24T11:36:37;7.07;;;3.67;;
5662;SDS011;2854;42.692;23.364;2023-03-24T11:39:20;4.97;;;4.40;;
5662;SDS011;2854;42.692;23.364;2023-03-24T11:41:50;5.80;;;3.80;;
5662;SDS011;2854;42.692;23.364;2023-03-24T11:46:41;4.30;;;3.73;;
5662;SDS011;2854;42.692;23.364;2023-03-24T11:49:07;5.53;;;4.17;;
5662;SDS011;2854;42.692;23.364;2023-03-24T11:51:35;6.40;;;4.40;;
5662;SDS011;2854;42.692;23.364;2023-03-24T11:54:02;7.97;;;4.00;;
5662;SDS011;2854;42.692;23.364;2023-03-24T11:56:30;6.07;;;4.13;;
5662;SDS011;2854;42.692;23.364;2023-03-24T11:59:01;4.47;;;3.70;;
5662;SDS011;2854;42.692;23.364;2023-03-24T12:01:31;3.27;;;2.97;;
5662;SDS011;2854;42.692;23.364;2023-03-24T12:13:57;3.50;;;3.20;;
5662;SDS011;2854;42.692;23.364;2023-03-24T12:21:55;2.90;;;2.70;;
5662;SDS011;2854;42.692;23.364;2023-03-24T12:26:53;2.33;;;2.17;;
5662;SDS011;2854;42.692;23.364;2023-03-24T12:32:00;8.27;;;2.60;;
5662;SDS011;2854;42.692;23.364;2023-03-24T12:35:06;2.60;;;2.40;;
5662;SDS011;2854;42.692;23.364;2023-03-24T12:42:46;2.53;;;2.33;;
5662;SDS011;2854;42.692;23.364;2023-03-24T12:52:42;2.47;;;2.27;;
5662;SDS011;2854;42.692;23.364;2023-03-24T12:55:16;2.60;;;2.27;;
5662;SDS011;2854;42.692;23.364;2023-03-24T12:57:44;2.20;;;2.10;;
5662;SDS011;2854;42.692;23.364;2023-03-24T13:02:38;3.50;;;1.50;;
5662;SDS011;2854;42.692;23.364;2023-03-24T13:05:06;1.60;;;1.50;;
5662;SDS011;2854;42.692;23.364;2023-03-24T13:07:34;2.27;;;2.07;;
5662;SDS011;2854;42.692;23.364;2023-03-24T13:15:17;3.23;;;2.00;;
5662;SDS011;2854;42.692;23.364;2023-03-24T13:17:48;2.17;;;2.07;;
5662;SDS011;2854;42.692;23.364;2023-03-24T13:20:25;2.73;;;2.53;;
5662;SDS011;2854;42.692;23.364;2023-03-24T13:22:51;2.23;;;2.13;;
5662;SDS011;2854;42.692;23.364;2023-03-24T13:25:21;1.70;;;1.60;;
5662;SDS011;2854;42.692;23.364;2023-03-24T13:27:51;1.80;;;1.70;;
5662;SDS011;2854;42.692;23.364;2023-03-24T13:30:31;5.10;;;2.70;;
5662;SDS011;2854;42.692;23.364;2023-03-24T13:33:09;2.00;;;1.90;;
5662;SDS011;2854;42.692;23.364;2023-03-24T13:35:44;2.53;;;2.33;;
5662;SDS011;2854;42.692;23.364;2023-03-24T13:38:46;1.57;;;1.47;;
5662;SDS011;2854;42.692;23.364;2023-03-24T13:41:04;1.90;;;1.80;;
5662;SDS011;2854;42.692;23.364;2023-03-24T13:43:30;1.93;;;1.83;;
5662;SDS011;2854;42.692;23.364;2023-03-24T13:53:15;63.87;;;7.53;;
5662;SDS011;2854;42.692;23.364;2023-03-24T13:55:49;1.77;;;1.67;;
5662;SDS011;2854;42.692;23.364;2023-03-24T13:58:19;2.20;;;2.00;;
5662;SDS011;2854;42.692;23.364;2023-03-24T14:03:32;1.90;;;1.80;;
5662;SDS011;2854;42.692;23.364;2023-03-24T14:05:59;4.13;;;3.00;;
5662;SDS011;2854;42.692;23.364;2023-03-24T14:10:59;1.60;;;1.50;;
5662;SDS011;2854;42.692;23.364;2023-03-24T14:13:34;3.00;;;2.50;;
5662;SDS011;2854;42.692;23.364;2023-03-24T14:15:59;2.10;;;1.90;;
5662;SDS011;2854;42.692;23.364;2023-03-24T14:18:45;1.77;;;1.67;;
5662;SDS011;2854;42.692;23.364;2023-03-24T14:21:12;3.67;;;1.50;;
5662;SDS011;2854;42.692;23.364;2023-03-24T14:23:44;1.63;;;1.50;;
5662;SDS011;2854;42.692;23.364;2023-03-24T14:26:11;1.50;;;1.40;;
5662;SDS011;2854;42.692;23.364;2023-03-24T14:28:41;1.83;;;1.73;;
5662;SDS011;2854;42.692;23.364;2023-03-24T14:33:33;2.03;;;1.40;;
5662;SDS011;2854;42.692;23.364;2023-03-24T14:36:03;3.40;;;1.80;;
5662;SDS011;2854;42.692;23.364;2023-03-24T14:38:33;2.40;;;1.73;;
5662;SDS011;2854;42.692;23.364;2023-03-24T14:40:59;1.43;;;1.33;;
5662;SDS011;2854;42.692;23.364;2023-03-24T14:46:04;1.63;;;1.53;;
5662;SDS011;2854;42.692;23.364;2023-03-24T14:50:57;1.77;;;1.63;;
5662;SDS011;2854;42.692;23.364;2023-03-24T14:53:23;1.60;;;1.50;;
5662;SDS011;2854;42.692;23.364;2023-03-24T14:55:48;1.83;;;1.60;;
5662;SDS011;2854;42.692;23.364;2023-03-24T14:58:19;1.50;;;1.40;;
5662;SDS011;2854;42.692;23.364;2023-03-24T15:00:47;1.93;;;1.70;;
5662;SDS011;2854;42.692;23.364;2023-03-24T15:05:40;2.10;;;2.00;;
5662;SDS011;2854;42.692;23.364;2023-03-24T15:13:05;1.90;;;1.80;;
5662;SDS011;2854;42.692;23.364;2023-03-24T15:15:30;2.10;;;2.00;;
5662;SDS011;2854;42.692;23.364;2023-03-24T15:17:55;2.10;;;2.00;;
5662;SDS011;2854;42.692;23.364;2023-03-24T15:22:49;1.77;;;1.67;;
5662;SDS011;2854;42.692;23.364;2023-03-24T15:25:18;1.40;;;1.30;;
5662;SDS011;2854;42.692;23.364;2023-03-24T15:27:50;2.90;;;1.80;;
5662;SDS011;2854;42.692;23.364;2023-03-24T15:30:16;1.93;;;1.70;;
5662;SDS011;2854;42.692;23.364;2023-03-24T15:32:41;1.77;;;1.67;;
5662;SDS011;2854;42.692;23.364;2023-03-24T15:35:13;2.63;;;2.43;;
5662;SDS011;2854;42.692;23.364;2023-03-24T15:37:40;2.70;;;2.40;;
5662;SDS011;2854;42.692;23.364;2023-03-24T15:40:52;3.33;;;3.03;;
5662;SDS011;2854;42.692;23.364;2023-03-24T15:43:05;3.87;;;2.50;;
5662;SDS011;2854;42.692;23.364;2023-03-24T15:45:41;9.00;;;2.60;;
5662;SDS011;2854;42.692;23.364;2023-03-24T15:48:08;2.57;;;2.37;;
5662;SDS011;2854;42.692;23.364;2023-03-24T15:50:38;2.93;;;2.73;;
5662;SDS011;2854;42.692;23.364;2023-03-24T15:58:29;4.17;;;2.60;;
5662;SDS011;2854;42.692;23.364;2023-03-24T16:00:57;3.53;;;3.23;;
5662;SDS011;2854;42.692;23.364;2023-03-24T16:03:23;4.10;;;3.17;;
5662;SDS011;2854;42.692;23.364;2023-03-24T16:05:55;5.40;;;3.83;;
5662;SDS011;2854;42.692;23.364;2023-03-24T16:08:24;4.50;;;3.70;;
5662;SDS011;2854;42.692;23.364;2023-03-24T16:10:55;7.83;;;3.90;;
5662;SDS011;2854;42.692;23.364;2023-03-24T16:13:21;6.07;;;4.43;;
5662;SDS011;2854;42.692;23.364;2023-03-24T16:18:23;6.30;;;4.43;;
5662;SDS011;2854;42.692;23.364;2023-03-24T16:20:49;11.47;;;5.80;;
5662;SDS011;2854;42.692;23.364;2023-03-24T16:23:15;9.10;;;3.63;;
5662;SDS011;2854;42.692;23.364;2023-03-24T16:25:41;6.33;;;4.23;;
5662;SDS011;2854;42.692;23.364;2023-03-24T16:28:07;3.57;;;3.27;;
5662;SDS011;2854;42.692;23.364;2023-03-24T16:30:35;4.13;;;2.63;;
5662;SDS011;2854;42.692;23.364;2023-03-24T16:33:02;4.60;;;3.53;;
5662;SDS011;2854;42.692;23.364;2023-03-24T16:35:27;3.13;;;2.83;;
5662;SDS011;2854;42.692;23.364;2023-03-24T16:37:52;3.43;;;2.93;;
5662;SDS011;2854;42.692;23.364;2023-03-24T16:42:56;3.27;;;2.60;;
5662;SDS011;2854;42.692;23.364;2023-03-24T16:45:23;5.13;;;3.20;;
5662;SDS011;2854;42.692;23.364;2023-03-24T16:47:48;4.33;;;3.93;;
5662;SDS011;2854;42.692;23.364;2023-03-24T16:50:21;4.07;;;3.77;;
5662;SDS011;2854;42.692;23.364;2023-03-24T16:52:48;3.93;;;3.30;;
5662;SDS011;2854;42.692;23.364;2023-03-24T16:55:13;3.57;;;3.27;;
5662;SDS011;2854;42.692;23.364;2023-03-24T16:57:39;5.03;;;3.20;;
5662;SDS011;2854;42.692;23.364;2023-03-24T17:00:04;4.97;;;3.63;;
5662;SDS011;2854;42.692;23.364;2023-03-24T17:02:35;6.07;;;2.90;;
5662;SDS011;2854;42.692;23.364;2023-03-24T17:05:01;7.70;;;3.50;;
5662;SDS011;2854;42.692;23.364;2023-03-24T17:07:27;2.87;;;2.63;;
5662;SDS011;2854;42.692;23.364;2023-03-24T17:09:52;3.37;;;3.10;;
5662;SDS011;2854;42.692;23.364;2023-03-24T17:12:18;4.27;;;3.73;;
5662;SDS011;2854;42.692;23.364;2023-03-24T17:14:43;5.00;;;4.30;;
5662;SDS011;2854;42.692;23.364;2023-03-24T17:17:09;6.50;;;4.70;;
5662;SDS011;2854;42.692;23.364;2023-03-24T17:19:35;8.70;;;5.10;;
5662;SDS011;2854;42.692;23.364;2023-03-24T17:22:02;14.70;;;7.33;;
5662;SDS011;2854;42.692;23.364;2023-03-24T17:24:29;15.27;;;7.20;;
5662;SDS011;2854;42.692;23.364;2023-03-24T17:26:59;12.80;;;7.37;;
5662;SDS011;2854;42.692;23.364;2023-03-24T17:29:25;9.27;;;7.17;;
5662;SDS011;2854;42.692;23.364;2023-03-24T17:31:51;10.33;;;5.83;;
5662;SDS011;2854;42.692;23.364;2023-03-24T17:34:17;11.73;;;6.33;;
5662;SDS011;2854;42.692;23.364;2023-03-24T17:36:42;6.90;;;5.37;;
5662;SDS011;2854;42.692;23.364;2023-03-24T17:39:08;13.07;;;6.90;;